createdAt,value
2023-03-28T00:01:13.036Z,97.40
2023-03-28T00:03:41.378Z,97.40
2023-03-28T00:06:12.599Z,97.40
2023-03-28T00:08:41.602Z,97.40
2023-03-28T00:11:18.752Z,97.40
2023-03-28T00:13:47.605Z,97.40
2023-03-28T00:16:16.554Z,97.40
2023-03-28T00:18:44.920Z,97.40
2023-03-28T00:21:25.681Z,97.40
2023-03-28T00:23:55.518Z,97.40
2023-03-28T00:26:26.843Z,97.40
2023-03-28T00:28:55.880Z,97.40
2023-03-28T00:31:25.340Z,97.40
2023-03-28T00:33:54.129Z,97.40
2023-03-28T00:36:26.288Z,97.40
2023-03-28T00:38:55.154Z,97.40
2023-03-28T00:41:31.176Z,97.40
2023-03-28T00:44:01.397Z,97.40
2023-03-28T00:46:33.926Z,97.40
2023-03-28T00:49:07.285Z,97.40
2023-03-28T00:51:39.584Z,97.40
2023-03-28T00:54:12.097Z,97.40
2023-03-28T00:56:47.275Z,97.40
2023-03-28T00:59:19.978Z,97.40
2023-03-28T01:01:49.151Z,97.40
2023-03-28T01:04:22.148Z,97.40
2023-03-28T01:06:55.643Z,97.40
2023-03-28T01:09:25.730Z,97.40
2023-03-28T01:11:59.009Z,97.40
2023-03-28T01:14:30.422Z,97.40
2023-03-28T01:17:01.055Z,97.40
2023-03-28T01:19:47.873Z,97.40
2023-03-28T01:23:03.908Z,97.40
2023-03-28T01:26:18.043Z,97.40
2023-03-28T01:29:30.413Z,97.40
2023-03-28T01:32:53.767Z,97.40
2023-03-28T01:36:34.692Z,97.40
2023-03-28T01:39:12.796Z,97.40
2023-03-28T01:41:48.469Z,97.40
2023-03-28T01:44:27.975Z,97.40
2023-03-28T01:47:03.263Z,97.40
2023-03-28T01:49:40.155Z,97.40
2023-03-28T01:52:18.921Z,97.40
2023-03-28T01:54:56.539Z,97.40
2023-03-28T01:57:30.410Z,97.40
2023-03-28T02:00:12.846Z,97.40
2023-03-28T02:03:05.874Z,97.40
2023-03-28T02:05:42.965Z,97.40
2023-03-28T02:08:16.679Z,97.40
2023-03-28T02:10:52.810Z,97.40
2023-03-28T02:13:52.009Z,97.40
2023-03-28T02:16:43.215Z,97.40
2023-03-28T02:19:40.538Z,97.40
2023-03-28T02:22:53.306Z,97.40
2023-03-28T02:25:41.558Z,97.40
2023-03-28T02:28:27.070Z,97.40
2023-03-28T02:31:17.258Z,97.40
2023-03-28T02:33:48.936Z,97.40
2023-03-28T02:36:35.204Z,97.40
2023-03-28T02:39:31.874Z,97.40
2023-03-28T02:42:45.566Z,97.40
2023-03-28T02:45:39.409Z,97.40
2023-03-28T02:48:25.363Z,97.40
2023-03-28T02:51:06.253Z,97.40
2023-03-28T02:53:44.593Z,97.40
2023-03-28T02:56:19.237Z,97.40
2023-03-28T02:59:20.791Z,97.40
2023-03-28T03:01:50.443Z,97.40
2023-03-28T03:04:18.903Z,97.40
2023-03-28T03:06:48.333Z,97.40
2023-03-28T03:09:17.684Z,97.40
2023-03-28T03:11:45.846Z,97.40
2023-03-28T03:14:14.098Z,97.40
2023-03-28T03:16:43.703Z,97.40
2023-03-28T03:19:14.022Z,97.40
2023-03-28T03:21:42.147Z,97.40
2023-03-28T03:24:10.781Z,97.40
2023-03-28T03:26:43.796Z,97.40
2023-03-28T03:29:17.306Z,97.40
2023-03-28T03:31:46.784Z,97.40
2023-03-28T03:34:41.383Z,97.40
2023-03-28T03:37:10.196Z,97.40
2023-03-28T03:39:38.534Z,97.40
2023-03-28T03:42:06.993Z,97.40
2023-03-28T03:44:35.187Z,97.40
2023-03-28T03:47:03.475Z,97.40
2023-03-28T03:49:31.781Z,97.40
2023-03-28T03:52:06.520Z,97.40
2023-03-28T03:54:36.201Z,97.40
2023-03-28T03:57:06.313Z,97.40
2023-03-28T03:59:34.959Z,97.40
2023-03-28T04:02:03.342Z,97.40
2023-03-28T04:04:41.393Z,97.40
2023-03-28T04:07:20.854Z,97.40
2023-03-28T04:09:51.605Z,97.40
2023-03-28T04:12:19.931Z,97.40
2023-03-28T04:14:51.133Z,97.40
2023-03-28T04:17:44.003Z,97.40
2023-03-28T04:20:15.943Z,97.40
2023-03-28T04:23:11.670Z,97.40
2023-03-28T04:25:42.435Z,97.40
2023-03-28T04:28:16.300Z,97.40
2023-03-28T04:31:01.127Z,97.40
2023-03-28T04:33:50.110Z,97.40
2023-03-28T04:36:22.584Z,97.40
2023-03-28T04:39:02.977Z,97.40
2023-03-28T04:41:55.499Z,97.40
2023-03-28T04:44:23.999Z,97.40
2023-03-28T04:47:00.454Z,97.40
2023-03-28T04:49:28.668Z,97.40
2023-03-28T04:51:56.964Z,97.40
2023-03-28T04:54:26.978Z,97.40
2023-03-28T04:57:05.896Z,97.40
2023-03-28T04:59:44.142Z,97.40
2023-03-28T05:02:18.553Z,97.40
2023-03-28T05:05:01.098Z,97.40
2023-03-28T05:07:29.518Z,97.40
2023-03-28T05:09:59.399Z,97.40
2023-03-28T05:12:34.787Z,97.40
2023-03-28T05:15:06.429Z,97.40
2023-03-28T05:17:43.331Z,97.40
2023-03-28T05:20:22.645Z,97.40
2023-03-28T05:22:55.895Z,97.40
2023-03-28T05:25:26.874Z,97.40
2023-03-28T05:27:56.951Z,97.40
2023-03-28T05:30:26.389Z,97.40
2023-03-28T05:32:58.323Z,97.40
2023-03-28T05:35:27.344Z,97.40
2023-03-28T05:37:55.760Z,97.40
2023-03-28T05:40:24.064Z,97.40
2023-03-28T05:42:53.752Z,97.40
2023-03-28T05:45:23.223Z,97.40
2023-03-28T05:47:54.475Z,97.40
2023-03-28T05:53:35.375Z,97.40
2023-03-28T05:59:06.285Z,97.40
2023-03-28T06:01:43.069Z,97.40
2023-03-28T06:04:15.016Z,97.40
2023-03-28T06:06:52.522Z,97.40
2023-03-28T06:10:06.321Z,97.40
2023-03-28T06:12:38.710Z,97.40
2023-03-28T06:15:13.292Z,97.40
2023-03-28T06:17:49.142Z,97.40
2023-03-28T06:20:35.936Z,97.40
2023-03-28T06:23:07.359Z,97.40
2023-03-28T06:28:54.276Z,97.40
2023-03-28T06:32:07.613Z,97.40
2023-03-28T06:34:45.236Z,97.40
2023-03-28T06:37:23.070Z,97.40
2023-03-28T06:40:05.292Z,97.40
2023-03-28T06:42:50.889Z,97.40
2023-03-28T06:45:45.193Z,97.40
2023-03-28T06:48:19.672Z,97.40
2023-03-28T06:51:19.397Z,97.40
2023-03-28T06:53:51.153Z,97.40
2023-03-28T06:56:27.936Z,97.40
2023-03-28T06:59:01.216Z,97.40
2023-03-28T07:01:35.209Z,97.40
2023-03-28T07:04:15.969Z,95.20
2023-03-28T07:06:50.189Z,95.10
2023-03-28T07:09:21.251Z,95.20
2023-03-28T07:11:58.902Z,93.40
2023-03-28T07:14:30.825Z,91.40
2023-03-28T07:17:01.430Z,88.10
2023-03-28T07:19:36.531Z,88.80
2023-03-28T07:22:09.173Z,78.20
2023-03-28T07:24:43.262Z,75.40
2023-03-28T07:27:17.252Z,84.90
2023-03-28T07:29:55.205Z,75.80
2023-03-28T07:36:12.596Z,73.90
2023-03-28T07:38:41.946Z,78.40
2023-03-28T07:41:10.831Z,70.40
2023-03-28T07:43:40.158Z,72.80
2023-03-28T07:46:13.557Z,62.30
2023-03-28T07:49:01.800Z,65.70
2023-03-28T07:51:43.382Z,67.40
2023-03-28T07:58:14.079Z,63.30
2023-03-28T08:00:45.815Z,65.30
2023-03-28T08:03:37.410Z,60.70
2023-03-28T08:06:20.144Z,56.30
2023-03-28T08:08:58.998Z,57.00
2023-03-28T08:11:36.431Z,56.70
2023-03-28T08:30:58.077Z,50.70
2023-03-28T08:33:29.061Z,47.80
2023-03-28T08:35:59.688Z,47.00
2023-03-28T08:38:29.161Z,42.00
2023-03-28T08:41:05.537Z,41.10
2023-03-28T08:44:23.215Z,46.40
2023-03-28T08:47:00.527Z,45.60
2023-03-28T08:50:02.178Z,42.30
2023-03-28T08:52:34.350Z,37.60
2023-03-28T09:07:18.794Z,41.10
2023-03-28T09:10:03.933Z,40.50
2023-03-28T09:13:02.930Z,38.00
2023-03-28T09:15:59.474Z,38.80
2023-03-28T09:18:55.052Z,42.90
2023-03-28T09:21:34.572Z,41.70
2023-03-28T09:24:40.854Z,40.90
2023-03-28T09:30:33.502Z,42.60
2023-03-28T09:33:13.581Z,41.40
2023-03-28T09:35:43.800Z,39.10
2023-03-28T09:38:22.306Z,40.50
2023-03-28T09:40:57.394Z,41.50
2023-03-28T09:43:48.884Z,41.80
2023-03-28T09:46:45.197Z,38.50
2023-03-28T09:49:19.634Z,38.30
2023-03-28T09:51:57.300Z,39.10
2023-03-28T09:54:30.955Z,31.80
2023-03-28T09:57:04.248Z,35.30
2023-03-28T09:59:50.756Z,32.70
2023-03-28T10:02:29.647Z,35.10
2023-03-28T10:05:02.878Z,32.50
2023-03-28T10:07:45.217Z,31.20
2023-03-28T10:10:41.766Z,32.10
2023-03-28T10:13:19.610Z,33.70
2023-03-28T10:15:51.901Z,33.70
2023-03-28T10:18:49.891Z,35.90
2023-03-28T10:21:27.799Z,37.30
2023-03-28T10:24:07.712Z,35.90
2023-03-28T10:26:37.710Z,30.40
2023-03-28T10:29:09.217Z,30.70
2023-03-28T10:31:41.589Z,33.00
2023-03-28T10:34:36.383Z,29.60
2023-03-28T10:37:27.240Z,29.60
2023-03-28T10:40:29.947Z,27.50
2023-03-28T10:43:17.142Z,29.20
2023-03-28T10:46:12.236Z,28.90
2023-03-28T10:49:03.024Z,28.20
2023-03-28T10:51:33.426Z,29.40
2023-03-28T10:54:46.970Z,27.20
2023-03-28T10:57:35.744Z,24.40
2023-03-28T11:00:12.363Z,28.00
2023-03-28T11:06:32.608Z,25.90
2023-03-28T11:13:06.909Z,26.50
2023-03-28T11:15:48.805Z,27.30
2023-03-28T11:18:41.960Z,28.20
2023-03-28T11:21:37.161Z,27.30
2023-03-28T11:24:26.905Z,27.90
2023-03-28T11:27:24.447Z,28.00
2023-03-28T11:30:19.611Z,27.70
2023-03-28T11:33:05.505Z,27.10
2023-03-28T11:35:39.587Z,29.10
2023-03-28T11:38:22.439Z,27.00
2023-03-28T11:40:56.543Z,28.80
2023-03-28T11:43:47.571Z,29.80
2023-03-28T11:46:23.969Z,28.80
2023-03-28T11:48:59.247Z,28.50
2023-03-28T11:55:41.768Z,27.10
2023-03-28T11:58:26.110Z,27.70
2023-03-28T12:01:03.470Z,29.00
2023-03-28T12:03:42.730Z,29.70
2023-03-28T12:06:18.557Z,28.50
2023-03-28T12:08:54.395Z,28.50
2023-03-28T12:11:35.567Z,28.00
2023-03-28T12:14:27.699Z,28.50
2023-03-28T12:17:01.534Z,27.90
2023-03-28T12:19:39.093Z,28.90
2023-03-28T12:22:26.635Z,29.30
2023-03-28T12:28:06.150Z,28.40
2023-03-28T12:30:40.409Z,26.30
2023-03-28T12:33:20.192Z,25.90
2023-03-28T12:36:08.566Z,26.90
2023-03-28T12:38:47.564Z,27.70
2023-03-28T12:41:28.805Z,26.70
2023-03-28T12:44:01.728Z,27.30
2023-03-28T12:46:46.487Z,28.30
2023-03-28T12:49:33.833Z,28.40
2023-03-28T12:52:09.553Z,28.40
2023-03-28T12:54:58.321Z,29.40
2023-03-28T12:57:46.457Z,28.40
2023-03-28T13:00:41.410Z,29.10
2023-03-28T13:03:51.191Z,27.80
2023-03-28T13:06:32.805Z,27.10
2023-03-28T13:14:09.862Z,28.50
2023-03-28T13:16:48.608Z,28.10
2023-03-28T13:19:20.198Z,26.90
2023-03-28T13:21:52.537Z,28.40
2023-03-28T13:24:32.329Z,29.50
2023-03-28T13:27:02.340Z,28.70
2023-03-28T13:29:47.894Z,30.40
2023-03-28T13:32:47.777Z,29.00
2023-03-28T13:43:48.199Z,30.40
2023-03-28T13:46:20.424Z,31.80
2023-03-28T13:48:55.692Z,34.20
2023-03-28T13:51:28.521Z,35.30
2023-03-28T13:53:56.976Z,36.20
2023-03-28T13:56:27.176Z,33.30
2023-03-28T13:58:58.690Z,31.60
2023-03-28T14:03:00.241Z,31.20
2023-03-28T14:09:58.513Z,30.60
2023-03-28T14:12:30.457Z,29.20
2023-03-28T14:15:02.424Z,28.50
2023-03-28T14:17:36.333Z,29.90
2023-03-28T14:20:07.501Z,29.80
2023-03-28T14:22:49.405Z,32.10
2023-03-28T14:25:27.472Z,31.50
2023-03-28T14:27:57.729Z,33.00
2023-03-28T14:30:29.494Z,36.30
2023-03-28T14:33:00.238Z,36.20
2023-03-28T14:35:31.635Z,36.00
2023-03-28T14:38:01.982Z,35.40
2023-03-28T14:40:34.951Z,37.10
2023-03-28T14:43:06.139Z,38.20
2023-03-28T14:45:38.221Z,37.40
2023-03-28T14:48:10.256Z,38.20
2023-03-28T14:50:40.956Z,39.10
2023-03-28T14:53:19.490Z,35.40
2023-03-28T14:55:51.115Z,35.30
2023-03-28T14:58:25.879Z,34.70
2023-03-28T15:00:56.998Z,33.70
2023-03-28T15:03:35.830Z,33.10
2023-03-28T15:06:05.175Z,32.10
2023-03-28T15:08:39.355Z,31.20
2023-03-28T15:11:17.981Z,29.80
2023-03-28T15:13:48.814Z,28.80
2023-03-28T15:16:23.276Z,29.50
2023-03-28T15:18:58.508Z,28.50
2023-03-28T15:21:27.509Z,30.60
2023-03-28T15:24:01.491Z,29.90
2023-03-28T15:26:39.358Z,31.00
2023-03-28T15:29:10.722Z,31.00
2023-03-28T15:31:40.714Z,33.00
2023-03-28T15:34:11.917Z,31.60
2023-03-28T15:36:52.862Z,32.20
2023-03-28T15:39:31.452Z,30.70
2023-03-28T15:42:29.899Z,30.10
2023-03-28T15:45:30.891Z,32.20
2023-03-28T15:48:02.680Z,33.30
2023-03-28T15:50:36.752Z,30.70
2023-03-28T15:53:08.812Z,29.70
2023-03-28T15:55:37.116Z,30.10
2023-03-28T15:58:07.705Z,31.80
2023-03-28T16:00:43.427Z,30.70
2023-03-28T16:03:34.612Z,32.70
2023-03-28T16:06:30.688Z,30.20
2023-03-28T16:09:16.805Z,31.60
2023-03-28T16:11:48.564Z,32.40
2023-03-28T16:14:37.461Z,31.60
2023-03-28T16:17:25.916Z,33.70
2023-03-28T16:20:15.285Z,33.40
2023-03-28T16:22:43.769Z,35.90
2023-03-28T16:25:12.692Z,35.90
2023-03-28T16:27:42.358Z,36.20
2023-03-28T16:30:19.540Z,37.10
2023-03-28T16:32:48.068Z,37.70
2023-03-28T16:35:16.850Z,38.20
2023-03-28T16:37:45.156Z,39.10
2023-03-28T16:40:14.303Z,38.80
2023-03-28T16:42:42.783Z,40.00
2023-03-28T16:45:13.798Z,40.60
2023-03-28T16:47:42.222Z,41.70
2023-03-28T16:50:11.539Z,43.30
2023-03-28T16:52:40.398Z,44.40
2023-03-28T16:55:11.188Z,44.60
2023-03-28T16:57:39.555Z,43.20
2023-03-28T17:00:14.116Z,43.80
2023-03-28T17:02:44.146Z,45.20
2023-03-28T17:05:12.436Z,47.60
2023-03-28T17:07:40.849Z,48.20
2023-03-28T17:10:11.531Z,48.70
2023-03-28T17:12:39.717Z,49.00
2023-03-28T17:15:09.970Z,49.90
2023-03-28T17:17:38.230Z,50.50
2023-03-28T17:20:09.998Z,51.40
2023-03-28T17:22:38.358Z,52.20
2023-03-28T17:25:08.700Z,53.70
2023-03-28T17:27:37.095Z,54.60
2023-03-28T17:30:07.554Z,54.60
2023-03-28T17:32:36.172Z,56.00
2023-03-28T17:35:04.964Z,56.30
2023-03-28T17:37:34.555Z,57.00
2023-03-28T17:40:03.601Z,58.30
2023-03-28T17:42:31.993Z,58.70
2023-03-28T17:45:00.415Z,59.00
2023-03-28T17:47:28.895Z,59.90
2023-03-28T17:50:00.287Z,60.90
2023-03-28T17:52:30.520Z,61.20
2023-03-28T17:55:00.753Z,62.20
2023-03-28T17:57:29.134Z,62.90
2023-03-28T17:59:57.744Z,63.30
2023-03-28T18:02:26.301Z,63.80
2023-03-28T18:05:08.317Z,64.20
2023-03-28T18:07:37.522Z,64.00
2023-03-28T18:10:10.559Z,64.20
2023-03-28T18:12:39.042Z,64.40
2023-03-28T18:15:08.847Z,64.60
2023-03-28T18:17:37.221Z,64.00
2023-03-28T18:20:08.551Z,64.60
2023-03-28T18:22:38.460Z,65.30
2023-03-28T18:25:09.840Z,65.30
2023-03-28T18:27:38.153Z,66.40
2023-03-28T18:30:08.362Z,69.40
2023-03-28T18:32:37.476Z,73.00
2023-03-28T18:35:07.349Z,74.80
2023-03-28T18:37:36.437Z,77.40
2023-03-28T18:40:26.623Z,77.80
2023-03-28T18:42:55.371Z,78.90
2023-03-28T18:45:23.591Z,78.60
